sensor_id;sensor_type;location;lat;lon;timestamp;pressure;altitude;pressure_sealevel;temperature
8533;BMP280;4304;53.876;10.662;2023-09-08T00:00:44;102134.56;;;18.02
8533;BMP280;4304;53.876;10.662;2023-09-08T00:03:09;102118.31;;;17.97
8533;BMP280;4304;53.876;10.662;2023-09-08T00:05:35;102132.28;;;17.97
8533;BMP280;4304;53.876;10.662;2023-09-08T00:08:00;102130.00;;;17.93
8533;BMP280;4304;53.876;10.662;2023-09-08T00:10:25;102130.00;;;17.93
8533;BMP280;4304;53.876;10.662;2023-09-08T00:12:51;102129.63;;;17.87
8533;BMP280;4304;53.876;10.662;2023-09-08T00:15:16;102130.81;;;17.83
8533;BMP280;4304;53.876;10.662;2023-09-08T00:17:42;102128.63;;;17.77
8533;BMP280;4304;53.876;10.662;2023-09-08T00:20:07;102124.47;;;17.74
8533;BMP280;4304;53.876;10.662;2023-09-08T00:22:37;102135.31;;;17.70
8533;BMP280;4304;53.876;10.662;2023-09-08T00:25:02;102127.41;;;17.70
8533;BMP280;4304;53.876;10.662;2023-09-08T00:27:29;102134.22;;;17.61
8533;BMP280;4304;53.876;10.662;2023-09-08T00:29:55;102130.47;;;17.53
8533;BMP280;4304;53.876;10.662;2023-09-08T00:32:20;102138.69;;;17.49
8533;BMP280;4304;53.876;10.662;2023-09-08T00:34:46;102131.38;;;17.41
8533;BMP280;4304;53.876;10.662;2023-09-08T00:37:11;102137.31;;;17.32
8533;BMP280;4304;53.876;10.662;2023-09-08T00:39:37;102140.72;;;17.22
8533;BMP280;4304;53.876;10.662;2023-09-08T00:42:03;102125.56;;;17.13
8533;BMP280;4304;53.876;10.662;2023-09-08T00:44:28;102121.63;;;17.08
8533;BMP280;4304;53.876;10.662;2023-09-08T00:46:54;102133.06;;;17.07
8533;BMP280;4304;53.876;10.662;2023-09-08T00:49:20;102125.53;;;17.02
8533;BMP280;4304;53.876;10.662;2023-09-08T00:51:45;102134.47;;;17.00
8533;BMP280;4304;53.876;10.662;2023-09-08T00:54:11;102136.16;;;16.88
8533;BMP280;4304;53.876;10.662;2023-09-08T00:56:37;102125.88;;;16.85
8533;BMP280;4304;53.876;10.662;2023-09-08T00:59:04;102125.78;;;16.87
8533;BMP280;4304;53.876;10.662;2023-09-08T01:01:29;102115.84;;;16.79
8533;BMP280;4304;53.876;10.662;2023-09-08T01:03:55;102128.22;;;16.77
8533;BMP280;4304;53.876;10.662;2023-09-08T01:06:21;102133.59;;;16.76
8533;BMP280;4304;53.876;10.662;2023-09-08T01:08:46;102129.56;;;16.83
8533;BMP280;4304;53.876;10.662;2023-09-08T01:11:12;102133.38;;;16.79
8533;BMP280;4304;53.876;10.662;2023-09-08T01:13:37;102123.59;;;16.81
8533;BMP280;4304;53.876;10.662;2023-09-08T01:16:03;102122.13;;;16.77
8533;BMP280;4304;53.876;10.662;2023-09-08T01:18:28;102116.88;;;16.77
8533;BMP280;4304;53.876;10.662;2023-09-08T01:23:56;102123.31;;;16.73
8533;BMP280;4304;53.876;10.662;2023-09-08T01:26:28;102114.50;;;16.74
8533;BMP280;4304;53.876;10.662;2023-09-08T01:28:55;102108.47;;;16.72
8533;BMP280;4304;53.876;10.662;2023-09-08T01:31:21;102101.56;;;16.71
8533;BMP280;4304;53.876;10.662;2023-09-08T01:33:46;102091.38;;;16.67
8533;BMP280;4304;53.876;10.662;2023-09-08T01:36:12;102098.75;;;16.74
8533;BMP280;4304;53.876;10.662;2023-09-08T01:38:39;102095.03;;;16.76
8533;BMP280;4304;53.876;10.662;2023-09-08T01:41:04;102095.34;;;16.72
8533;BMP280;4304;53.876;10.662;2023-09-08T01:43:29;102104.91;;;16.73
8533;BMP280;4304;53.876;10.662;2023-09-08T01:45:55;102090.97;;;16.72
8533;BMP280;4304;53.876;10.662;2023-09-08T01:48:20;102099.56;;;16.74
8533;BMP280;4304;53.876;10.662;2023-09-08T01:50:46;102090.09;;;16.72
8533;BMP280;4304;53.876;10.662;2023-09-08T01:53:13;102092.00;;;16.70
8533;BMP280;4304;53.876;10.662;2023-09-08T01:55:38;102090.09;;;16.72
8533;BMP280;4304;53.876;10.662;2023-09-08T01:58:03;102083.41;;;16.68
8533;BMP280;4304;53.876;10.662;2023-09-08T02:00:29;102080.47;;;16.72
8533;BMP280;4304;53.876;10.662;2023-09-08T02:02:54;102090.88;;;16.74
8533;BMP280;4304;53.876;10.662;2023-09-08T02:05:19;102071.47;;;16.64
8533;BMP280;4304;53.876;10.662;2023-09-08T02:07:45;102076.56;;;16.66
8533;BMP280;4304;53.876;10.662;2023-09-08T02:10:10;102074.81;;;16.66
8533;BMP280;4304;53.876;10.662;2023-09-08T02:12:36;102076.06;;;16.61
8533;BMP280;4304;53.876;10.662;2023-09-08T02:15:01;102071.88;;;16.58
8533;BMP280;4304;53.876;10.662;2023-09-08T02:17:26;102083.78;;;16.51
8533;BMP280;4304;53.876;10.662;2023-09-08T02:19:52;102075.09;;;16.38
8533;BMP280;4304;53.876;10.662;2023-09-08T02:22:18;102076.88;;;16.25
8533;BMP280;4304;53.876;10.662;2023-09-08T02:24:43;102070.56;;;16.16
8533;BMP280;4304;53.876;10.662;2023-09-08T02:27:08;102084.94;;;16.10
8533;BMP280;4304;53.876;10.662;2023-09-08T02:29:34;102078.53;;;16.02
8533;BMP280;4304;53.876;10.662;2023-09-08T02:32:00;102079.91;;;15.95
8533;BMP280;4304;53.876;10.662;2023-09-08T02:34:25;102079.56;;;15.87
8533;BMP280;4304;53.876;10.662;2023-09-08T02:36:51;102084.19;;;15.83
8533;BMP280;4304;53.876;10.662;2023-09-08T02:39:16;102094.03;;;15.80
8533;BMP280;4304;53.876;10.662;2023-09-08T02:41:41;102085.84;;;15.72
8533;BMP280;4304;53.876;10.662;2023-09-08T02:44:07;102074.84;;;15.67
8533;BMP280;4304;53.876;10.662;2023-09-08T02:46:32;102085.41;;;15.66
8533;BMP280;4304;53.876;10.662;2023-09-08T02:48:57;102078.28;;;15.55
8533;BMP280;4304;53.876;10.662;2023-09-08T02:51:22;102080.06;;;15.55
8533;BMP280;4304;53.876;10.662;2023-09-08T02:53:48;102076.91;;;15.50
8533;BMP280;4304;53.876;10.662;2023-09-08T02:56:13;102083.28;;;15.46
8533;BMP280;4304;53.876;10.662;2023-09-08T02:58:38;102084.63;;;15.39
8533;BMP280;4304;53.876;10.662;2023-09-08T03:01:14;102079.28;;;15.28
8533;BMP280;4304;53.876;10.662;2023-09-08T03:03:41;102081.56;;;15.20
8533;BMP280;4304;53.876;10.662;2023-09-08T03:06:06;102081.09;;;15.14
8533;BMP280;4304;53.876;10.662;2023-09-08T03:08:32;102082.97;;;15.12
8533;BMP280;4304;53.876;10.662;2023-09-08T03:10:58;102071.00;;;15.08
8533;BMP280;4304;53.876;10.662;2023-09-08T03:13:24;102086.63;;;15.09
8533;BMP280;4304;53.876;10.662;2023-09-08T03:15:51;102070.66;;;15.00
8533;BMP280;4304;53.876;10.662;2023-09-08T03:18:17;102069.91;;;14.98
8533;BMP280;4304;53.876;10.662;2023-09-08T03:20:42;102083.97;;;14.97
8533;BMP280;4304;53.876;10.662;2023-09-08T03:23:08;102076.84;;;14.99
8533;BMP280;4304;53.876;10.662;2023-09-08T03:25:34;102072.53;;;14.98
8533;BMP280;4304;53.876;10.662;2023-09-08T03:27:59;102067.59;;;14.93
8533;BMP280;4304;53.876;10.662;2023-09-08T03:30:25;102062.13;;;14.84
8533;BMP280;4304;53.876;10.662;2023-09-08T03:32:50;102060.06;;;14.75
8533;BMP280;4304;53.876;10.662;2023-09-08T03:35:15;102066.91;;;14.78
8533;BMP280;4304;53.876;10.662;2023-09-08T03:37:41;102058.31;;;14.76
8533;BMP280;4304;53.876;10.662;2023-09-08T03:40:06;102055.28;;;14.82
8533;BMP280;4304;53.876;10.662;2023-09-08T03:42:32;102055.56;;;14.77
8533;BMP280;4304;53.876;10.662;2023-09-08T03:45:00;102056.53;;;14.76
8533;BMP280;4304;53.876;10.662;2023-09-08T03:47:25;102047.19;;;14.72
8533;BMP280;4304;53.876;10.662;2023-09-08T03:49:51;102047.59;;;14.66
8533;BMP280;4304;53.876;10.662;2023-09-08T03:52:16;102047.41;;;14.55
8533;BMP280;4304;53.876;10.662;2023-09-08T03:54:42;102049.56;;;14.49
8533;BMP280;4304;53.876;10.662;2023-09-08T03:57:07;102048.19;;;14.44
8533;BMP280;4304;53.876;10.662;2023-09-08T03:59:32;102052.97;;;14.37
8533;BMP280;4304;53.876;10.662;2023-09-08T04:01:57;102044.84;;;14.28
8533;BMP280;4304;53.876;10.662;2023-09-08T04:04:23;102056.25;;;14.27
8533;BMP280;4304;53.876;10.662;2023-09-08T04:06:48;102054.00;;;14.21
8533;BMP280;4304;53.876;10.662;2023-09-08T04:09:14;102052.03;;;14.24
8533;BMP280;4304;53.876;10.662;2023-09-08T04:11:39;102044.03;;;14.13
8533;BMP280;4304;53.876;10.662;2023-09-08T04:14:04;102049.13;;;14.15
8533;BMP280;4304;53.876;10.662;2023-09-08T04:16:30;102047.28;;;14.17
8533;BMP280;4304;53.876;10.662;2023-09-08T04:18:55;102044.78;;;14.15
8533;BMP280;4304;53.876;10.662;2023-09-08T04:21:21;102044.59;;;14.18
8533;BMP280;4304;53.876;10.662;2023-09-08T04:23:47;102047.28;;;14.17
8533;BMP280;4304;53.876;10.662;2023-09-08T04:26:12;102035.50;;;14.24
8533;BMP280;4304;53.876;10.662;2023-09-08T04:28:38;102042.63;;;14.22
8533;BMP280;4304;53.876;10.662;2023-09-08T04:31:03;102020.03;;;14.07
8533;BMP280;4304;53.876;10.662;2023-09-08T04:33:29;102031.38;;;14.34
8533;BMP280;4304;53.876;10.662;2023-09-08T04:35:54;102016.91;;;14.68
8533;BMP280;4304;53.876;10.662;2023-09-08T04:38:20;102008.97;;;14.70
8533;BMP280;4304;53.876;10.662;2023-09-08T04:40:45;102012.22;;;14.73
8533;BMP280;4304;53.876;10.662;2023-09-08T04:43:11;102021.22;;;14.69
8533;BMP280;4304;53.876;10.662;2023-09-08T04:45:37;102022.06;;;14.70
8533;BMP280;4304;53.876;10.662;2023-09-08T04:48:03;102021.13;;;14.71
8533;BMP280;4304;53.876;10.662;2023-09-08T04:50:29;102012.13;;;14.75
8533;BMP280;4304;53.876;10.662;2023-09-08T04:52:54;102001.47;;;14.78
8533;BMP280;4304;53.876;10.662;2023-09-08T04:55:19;102026.59;;;14.80
8533;BMP280;4304;53.876;10.662;2023-09-08T04:57:45;102013.69;;;14.77
8533;BMP280;4304;53.876;10.662;2023-09-08T05:00:10;102015.94;;;14.83
8533;BMP280;4304;53.876;10.662;2023-09-08T05:02:37;102019.09;;;14.88
8533;BMP280;4304;53.876;10.662;2023-09-08T05:05:02;102024.41;;;14.87
8533;BMP280;4304;53.876;10.662;2023-09-08T05:07:27;102017.09;;;14.79
8533;BMP280;4304;53.876;10.662;2023-09-08T05:09:53;102028.13;;;14.70
8533;BMP280;4304;53.876;10.662;2023-09-08T05:12:18;102025.81;;;14.66
8533;BMP280;4304;53.876;10.662;2023-09-08T05:14:43;102034.69;;;14.63
8533;BMP280;4304;53.876;10.662;2023-09-08T05:17:09;102040.56;;;14.67
8533;BMP280;4304;53.876;10.662;2023-09-08T05:19:34;102035.41;;;14.79
8533;BMP280;4304;53.876;10.662;2023-09-08T05:22:00;102025.41;;;14.98
8533;BMP280;4304;53.876;10.662;2023-09-08T05:24:25;102021.88;;;15.25
8533;BMP280;4304;53.876;10.662;2023-09-08T05:26:52;102021.78;;;15.51
8533;BMP280;4304;53.876;10.662;2023-09-08T05:29:17;102019.81;;;15.80
8533;BMP280;4304;53.876;10.662;2023-09-08T05:31:42;102017.91;;;16.06
8533;BMP280;4304;53.876;10.662;2023-09-08T05:34:08;102012.84;;;16.28
8533;BMP280;4304;53.876;10.662;2023-09-08T05:36:33;102022.16;;;16.44
8533;BMP280;4304;53.876;10.662;2023-09-08T05:39:02;102017.06;;;16.66
8533;BMP280;4304;53.876;10.662;2023-09-08T05:41:27;102018.16;;;16.98
8533;BMP280;4304;53.876;10.662;2023-09-08T05:43:53;102010.41;;;16.96
8533;BMP280;4304;53.876;10.662;2023-09-08T05:46:19;102006.13;;;17.29
8533;BMP280;4304;53.876;10.662;2023-09-08T05:48:44;102017.59;;;17.62
8533;BMP280;4304;53.876;10.662;2023-09-08T05:51:10;102008.88;;;17.73
8533;BMP280;4304;53.876;10.662;2023-09-08T05:53:35;102014.84;;;17.96
8533;BMP280;4304;53.876;10.662;2023-09-08T05:56:03;102009.88;;;18.15
8533;BMP280;4304;53.876;10.662;2023-09-08T05:58:28;102016.06;;;18.47
8533;BMP280;4304;53.876;10.662;2023-09-08T06:00:54;102012.06;;;18.63
8533;BMP280;4304;53.876;10.662;2023-09-08T06:03:20;102002.78;;;18.90
8533;BMP280;4304;53.876;10.662;2023-09-08T06:05:45;102010.13;;;18.76
8533;BMP280;4304;53.876;10.662;2023-09-08T06:08:11;102012.94;;;19.26
8533;BMP280;4304;53.876;10.662;2023-09-08T06:10:37;102013.97;;;19.55
8533;BMP280;4304;53.876;10.662;2023-09-08T06:13:03;102011.78;;;19.60
8533;BMP280;4304;53.876;10.662;2023-09-08T06:15:28;102018.88;;;19.59
8533;BMP280;4304;53.876;10.662;2023-09-08T06:17:53;102016.34;;;19.78
8533;BMP280;4304;53.876;10.662;2023-09-08T06:20:19;102014.09;;;19.53
8533;BMP280;4304;53.876;10.662;2023-09-08T06:22:44;102013.97;;;19.95
8533;BMP280;4304;53.876;10.662;2023-09-08T06:25:09;102018.78;;;19.70
8533;BMP280;4304;53.876;10.662;2023-09-08T06:27:35;102016.59;;;19.95
8533;BMP280;4304;53.876;10.662;2023-09-08T06:30:00;102006.81;;;20.64
8533;BMP280;4304;53.876;10.662;2023-09-08T06:32:26;102015.22;;;20.30
8533;BMP280;4304;53.876;10.662;2023-09-08T06:34:51;102001.09;;;20.50
8533;BMP280;4304;53.876;10.662;2023-09-08T06:37:16;102010.47;;;20.73
8533;BMP280;4304;53.876;10.662;2023-09-08T06:39:42;102013.28;;;21.18
8533;BMP280;4304;53.876;10.662;2023-09-08T06:42:07;102004.66;;;21.16
8533;BMP280;4304;53.876;10.662;2023-09-08T06:44:32;102011.06;;;21.51
8533;BMP280;4304;53.876;10.662;2023-09-08T06:46:58;102014.94;;;22.02
8533;BMP280;4304;53.876;10.662;2023-09-08T06:49:23;102008.63;;;22.66
8533;BMP280;4304;53.876;10.662;2023-09-08T06:51:48;102009.66;;;23.34
8533;BMP280;4304;53.876;10.662;2023-09-08T06:54:14;102025.63;;;22.90
8533;BMP280;4304;53.876;10.662;2023-09-08T06:56:39;102012.31;;;23.59
8533;BMP280;4304;53.876;10.662;2023-09-08T06:59:04;102025.88;;;23.31
8533;BMP280;4304;53.876;10.662;2023-09-08T07:01:30;102006.91;;;24.19
8533;BMP280;4304;53.876;10.662;2023-09-08T07:03:55;102020.19;;;24.52
8533;BMP280;4304;53.876;10.662;2023-09-08T07:06:21;102014.66;;;24.46
8533;BMP280;4304;53.876;10.662;2023-09-08T07:08:49;102009.31;;;24.05
8533;BMP280;4304;53.876;10.662;2023-09-08T07:11:15;101994.34;;;24.37
8533;BMP280;4304;53.876;10.662;2023-09-08T07:13:41;102010.13;;;24.31
8533;BMP280;4304;53.876;10.662;2023-09-08T07:16:06;102011.00;;;23.38
8533;BMP280;4304;53.876;10.662;2023-09-08T07:18:31;101990.22;;;23.34
8533;BMP280;4304;53.876;10.662;2023-09-08T07:21:01;102007.72;;;23.61
8533;BMP280;4304;53.876;10.662;2023-09-08T07:23:26;101995.59;;;23.42
8533;BMP280;4304;53.876;10.662;2023-09-08T07:25:51;102010.34;;;23.79
8533;BMP280;4304;53.876;10.662;2023-09-08T07:28:17;102005.06;;;23.87
8533;BMP280;4304;53.876;10.662;2023-09-08T07:30:42;101996.47;;;23.93
8533;BMP280;4304;53.876;10.662;2023-09-08T07:33:08;101997.50;;;24.00
8533;BMP280;4304;53.876;10.662;2023-09-08T07:35:37;102003.91;;;23.89
8533;BMP280;4304;53.876;10.662;2023-09-08T07:38:02;102000.53;;;23.79
8533;BMP280;4304;53.876;10.662;2023-09-08T07:40:28;101991.19;;;23.50
8533;BMP280;4304;53.876;10.662;2023-09-08T07:42:53;101987.34;;;24.28
8533;BMP280;4304;53.876;10.662;2023-09-08T07:45:18;101991.84;;;24.02
8533;BMP280;4304;53.876;10.662;2023-09-08T07:47:44;101985.03;;;24.90
8533;BMP280;4304;53.876;10.662;2023-09-08T07:50:24;102000.09;;;24.66
8533;BMP280;4304;53.876;10.662;2023-09-08T07:52:51;101985.69;;;24.84
8533;BMP280;4304;53.876;10.662;2023-09-08T07:55:17;102000.13;;;24.89
8533;BMP280;4304;53.876;10.662;2023-09-08T07:57:43;101972.88;;;23.90
8533;BMP280;4304;53.876;10.662;2023-09-08T08:00:10;101976.50;;;24.22
8533;BMP280;4304;53.876;10.662;2023-09-08T08:02:36;101970.88;;;24.25
8533;BMP280;4304;53.876;10.662;2023-09-08T08:05:02;101976.28;;;24.07
8533;BMP280;4304;53.876;10.662;2023-09-08T08:07:27;101965.19;;;24.53
8533;BMP280;4304;53.876;10.662;2023-09-08T08:09:52;101972.09;;;24.30
8533;BMP280;4304;53.876;10.662;2023-09-08T08:12:19;101980.63;;;24.49
8533;BMP280;4304;53.876;10.662;2023-09-08T08:14:44;101977.53;;;24.86
8533;BMP280;4304;53.876;10.662;2023-09-08T08:17:09;101962.41;;;25.33
8533;BMP280;4304;53.876;10.662;2023-09-08T08:19:36;101990.53;;;25.28
8533;BMP280;4304;53.876;10.662;2023-09-08T08:22:01;101969.56;;;24.93
8533;BMP280;4304;53.876;10.662;2023-09-08T08:24:27;101953.09;;;24.74
8533;BMP280;4304;53.876;10.662;2023-09-08T08:26:52;101947.28;;;24.87
8533;BMP280;4304;53.876;10.662;2023-09-08T08:29:17;101967.94;;;25.16
8533;BMP280;4304;53.876;10.662;2023-09-08T08:31:43;101957.25;;;24.92
8533;BMP280;4304;53.876;10.662;2023-09-08T08:34:08;101953.78;;;25.32
8533;BMP280;4304;53.876;10.662;2023-09-08T08:36:34;101963.78;;;25.22
8533;BMP280;4304;53.876;10.662;2023-09-08T08:39:00;101945.78;;;25.55
8533;BMP280;4304;53.876;10.662;2023-09-08T08:41:25;101964.38;;;25.79
8533;BMP280;4304;53.876;10.662;2023-09-08T08:43:51;101974.69;;;26.20
8533;BMP280;4304;53.876;10.662;2023-09-08T08:46:17;101960.56;;;25.50
8533;BMP280;4304;53.876;10.662;2023-09-08T08:48:44;101954.09;;;25.52
8533;BMP280;4304;53.876;10.662;2023-09-08T08:51:11;101965.56;;;25.61
8533;BMP280;4304;53.876;10.662;2023-09-08T08:53:37;101965.91;;;26.12
8533;BMP280;4304;53.876;10.662;2023-09-08T08:56:04;101973.81;;;26.35
8533;BMP280;4304;53.876;10.662;2023-09-08T08:58:33;101963.66;;;25.93
8533;BMP280;4304;53.876;10.662;2023-09-08T09:01:00;101962.16;;;26.36
8533;BMP280;4304;53.876;10.662;2023-09-08T09:03:27;101968.56;;;26.50
8533;BMP280;4304;53.876;10.662;2023-09-08T09:05:53;101979.84;;;26.60
8533;BMP280;4304;53.876;10.662;2023-09-08T09:08:19;101970.00;;;25.92
8533;BMP280;4304;53.876;10.662;2023-09-08T09:10:44;101963.03;;;26.29
8533;BMP280;4304;53.876;10.662;2023-09-08T09:13:10;101955.41;;;26.10
8533;BMP280;4304;53.876;10.662;2023-09-08T09:15:35;101961.13;;;25.99
8533;BMP280;4304;53.876;10.662;2023-09-08T09:18:05;101958.56;;;26.52
8533;BMP280;4304;53.876;10.662;2023-09-08T09:20:31;101967.69;;;26.87
8533;BMP280;4304;53.876;10.662;2023-09-08T09:22:57;101956.44;;;26.69
8533;BMP280;4304;53.876;10.662;2023-09-08T09:25:23;101948.78;;;26.97
8533;BMP280;4304;53.876;10.662;2023-09-08T09:27:53;101975.81;;;26.94
8533;BMP280;4304;53.876;10.662;2023-09-08T09:30:19;101972.31;;;26.63
8533;BMP280;4304;53.876;10.662;2023-09-08T09:32:44;101970.00;;;27.12
8533;BMP280;4304;53.876;10.662;2023-09-08T09:35:10;101975.41;;;27.19
8533;BMP280;4304;53.876;10.662;2023-09-08T09:37:35;101951.53;;;26.81
8533;BMP280;4304;53.876;10.662;2023-09-08T09:40:01;101949.75;;;26.73
8533;BMP280;4304;53.876;10.662;2023-09-08T09:42:28;101944.78;;;27.15
8533;BMP280;4304;53.876;10.662;2023-09-08T09:44:54;101934.06;;;27.52
8533;BMP280;4304;53.876;10.662;2023-09-08T09:47:19;101957.78;;;27.69
8533;BMP280;4304;53.876;10.662;2023-09-08T09:49:46;101981.19;;;27.67
8533;BMP280;4304;53.876;10.662;2023-09-08T09:52:20;101975.38;;;27.63
8533;BMP280;4304;53.876;10.662;2023-09-08T09:54:46;101950.09;;;27.52
8533;BMP280;4304;53.876;10.662;2023-09-08T09:57:15;101946.44;;;27.67
8533;BMP280;4304;53.876;10.662;2023-09-08T09:59:41;101952.19;;;27.27
8533;BMP280;4304;53.876;10.662;2023-09-08T10:02:13;101952.28;;;27.34
8533;BMP280;4304;53.876;10.662;2023-09-08T10:04:42;101938.97;;;27.48
8533;BMP280;4304;53.876;10.662;2023-09-08T10:07:08;101933.06;;;27.81
8533;BMP280;4304;53.876;10.662;2023-09-08T10:09:36;101968.28;;;28.13
8533;BMP280;4304;53.876;10.662;2023-09-08T10:12:05;101950.09;;;28.38
8533;BMP280;4304;53.876;10.662;2023-09-08T10:14:31;101992.78;;;28.81
8533;BMP280;4304;53.876;10.662;2023-09-08T10:16:59;101956.09;;;28.60
8533;BMP280;4304;53.876;10.662;2023-09-08T10:19:26;101987.94;;;28.90
8533;BMP280;4304;53.876;10.662;2023-09-08T10:22:00;101972.31;;;29.15
8533;BMP280;4304;53.876;10.662;2023-09-08T10:24:33;101993.84;;;28.86
8533;BMP280;4304;53.876;10.662;2023-09-08T10:27:19;101977.25;;;28.70
8533;BMP280;4304;53.876;10.662;2023-09-08T10:29:47;101965.75;;;28.40
8533;BMP280;4304;53.876;10.662;2023-09-08T10:32:12;101954.72;;;28.29
8533;BMP280;4304;53.876;10.662;2023-09-08T10:34:39;101957.34;;;28.79
8533;BMP280;4304;53.876;10.662;2023-09-08T10:37:22;101957.91;;;28.95
8533;BMP280;4304;53.876;10.662;2023-09-08T10:39:47;101969.88;;;29.20
8533;BMP280;4304;53.876;10.662;2023-09-08T10:47:12;101949.97;;;28.45
8533;BMP280;4304;53.876;10.662;2023-09-08T10:49:38;101955.63;;;28.92
8533;BMP280;4304;53.876;10.662;2023-09-08T10:52:11;101974.53;;;28.90
8533;BMP280;4304;53.876;10.662;2023-09-08T10:54:44;101966.69;;;29.58
8533;BMP280;4304;53.876;10.662;2023-09-08T10:57:27;101970.25;;;29.92
8533;BMP280;4304;53.876;10.662;2023-09-08T10:59:57;101940.88;;;30.17
8533;BMP280;4304;53.876;10.662;2023-09-08T11:02:40;101950.81;;;30.30
8533;BMP280;4304;53.876;10.662;2023-09-08T11:05:08;101978.53;;;29.97
8533;BMP280;4304;53.876;10.662;2023-09-08T11:07:36;101962.50;;;30.10
8533;BMP280;4304;53.876;10.662;2023-09-08T11:10:02;101985.16;;;30.07
8533;BMP280;4304;53.876;10.662;2023-09-08T11:12:28;101963.72;;;29.73
8533;BMP280;4304;53.876;10.662;2023-09-08T11:14:54;101958.06;;;29.62
8533;BMP280;4304;53.876;10.662;2023-09-08T11:17:20;101939.41;;;29.75
8533;BMP280;4304;53.876;10.662;2023-09-08T11:19:46;101944.19;;;29.79
8533;BMP280;4304;53.876;10.662;2023-09-08T11:22:13;101894.03;;;30.20
8533;BMP280;4304;53.876;10.662;2023-09-08T11:24:41;101932.19;;;29.75
8533;BMP280;4304;53.876;10.662;2023-09-08T11:27:06;101925.91;;;30.42
8533;BMP280;4304;53.876;10.662;2023-09-08T11:29:32;101932.50;;;29.93
8533;BMP280;4304;53.876;10.662;2023-09-08T11:31:58;101947.38;;;30.36
8533;BMP280;4304;53.876;10.662;2023-09-08T11:34:23;101956.81;;;30.32
8533;BMP280;4304;53.876;10.662;2023-09-08T11:36:49;101951.63;;;30.24
8533;BMP280;4304;53.876;10.662;2023-09-08T11:39:14;101921.16;;;30.38
8533;BMP280;4304;53.876;10.662;2023-09-08T11:41:40;101910.03;;;30.47
8533;BMP280;4304;53.876;10.662;2023-09-08T11:44:06;101930.75;;;30.19
8533;BMP280;4304;53.876;10.662;2023-09-08T11:46:31;101939.75;;;30.46
8533;BMP280;4304;53.876;10.662;2023-09-08T11:48:57;101948.59;;;29.93
8533;BMP280;4304;53.876;10.662;2023-09-08T11:51:23;101957.59;;;30.19
8533;BMP280;4304;53.876;10.662;2023-09-08T11:53:49;101966.59;;;30.46
8533;BMP280;4304;53.876;10.662;2023-09-08T11:56:14;101961.25;;;30.52
8533;BMP280;4304;53.876;10.662;2023-09-08T11:58:40;101953.44;;;30.63
8533;BMP280;4304;53.876;10.662;2023-09-08T12:01:06;101961.63;;;30.49
8533;BMP280;4304;53.876;10.662;2023-09-08T12:03:32;101946.41;;;30.69
8533;BMP280;4304;53.876;10.662;2023-09-08T12:05:57;101931.59;;;30.99
8533;BMP280;4304;53.876;10.662;2023-09-08T12:08:25;101966.88;;;30.70
8533;BMP280;4304;53.876;10.662;2023-09-08T12:10:53;101942.09;;;30.81
8533;BMP280;4304;53.876;10.662;2023-09-08T12:13:24;101938.56;;;30.74
8533;BMP280;4304;53.876;10.662;2023-09-08T12:15:50;101938.00;;;30.85
8533;BMP280;4304;53.876;10.662;2023-09-08T12:18:15;101922.53;;;31.00
8533;BMP280;4304;53.876;10.662;2023-09-08T12:20:41;101930.25;;;30.43
8533;BMP280;4304;53.876;10.662;2023-09-08T12:23:19;101946.38;;;30.03
8533;BMP280;4304;53.876;10.662;2023-09-08T12:25:48;101910.84;;;30.41
8533;BMP280;4304;53.876;10.662;2023-09-08T12:28:16;101916.63;;;30.51
8533;BMP280;4304;53.876;10.662;2023-09-08T12:30:42;101897.84;;;29.92
8533;BMP280;4304;53.876;10.662;2023-09-08T12:33:08;101876.22;;;29.53
8533;BMP280;4304;53.876;10.662;2023-09-08T12:35:34;101874.09;;;29.49
8533;BMP280;4304;53.876;10.662;2023-09-08T12:38:02;101884.94;;;29.34
8533;BMP280;4304;53.876;10.662;2023-09-08T12:40:34;101884.53;;;29.10
8533;BMP280;4304;53.876;10.662;2023-09-08T12:43:00;101875.75;;;28.95
8533;BMP280;4304;53.876;10.662;2023-09-08T12:45:26;101847.94;;;28.69
8533;BMP280;4304;53.876;10.662;2023-09-08T12:47:52;101825.94;;;28.94
8533;BMP280;4304;53.876;10.662;2023-09-08T12:50:20;101840.22;;;29.08
8533;BMP280;4304;53.876;10.662;2023-09-08T12:52:45;101861.28;;;29.11
8533;BMP280;4304;53.876;10.662;2023-09-08T12:55:11;101855.88;;;29.04
8533;BMP280;4304;53.876;10.662;2023-09-08T12:57:37;101856.53;;;28.85
8533;BMP280;4304;53.876;10.662;2023-09-08T13:00:03;101854.72;;;28.92
8533;BMP280;4304;53.876;10.662;2023-09-08T13:02:29;101848.22;;;29.01
8533;BMP280;4304;53.876;10.662;2023-09-08T13:04:54;101849.81;;;28.96
8533;BMP280;4304;53.876;10.662;2023-09-08T13:07:20;101864.38;;;28.87
8533;BMP280;4304;53.876;10.662;2023-09-08T13:09:46;101810.25;;;28.91
8533;BMP280;4304;53.876;10.662;2023-09-08T13:12:11;101831.06;;;28.96
8533;BMP280;4304;53.876;10.662;2023-09-08T13:14:38;101840.13;;;28.95
8533;BMP280;4304;53.876;10.662;2023-09-08T13:17:04;101843.81;;;28.94
8533;BMP280;4304;53.876;10.662;2023-09-08T13:19:29;101845.25;;;28.90
8533;BMP280;4304;53.876;10.662;2023-09-08T13:21:55;101834.88;;;28.81
8533;BMP280;4304;53.876;10.662;2023-09-08T13:24:20;101832.81;;;28.83
8533;BMP280;4304;53.876;10.662;2023-09-08T13:26:47;101820.53;;;28.88
8533;BMP280;4304;53.876;10.662;2023-09-08T13:29:13;101830.34;;;28.81
8533;BMP280;4304;53.876;10.662;2023-09-08T13:31:38;101822.97;;;28.83
8533;BMP280;4304;53.876;10.662;2023-09-08T13:34:03;101818.38;;;28.77
8533;BMP280;4304;53.876;10.662;2023-09-08T13:36:29;101826.84;;;28.81
8533;BMP280;4304;53.876;10.662;2023-09-08T13:38:54;101833.44;;;28.78
8533;BMP280;4304;53.876;10.662;2023-09-08T13:41:19;101825.53;;;28.70
8533;BMP280;4304;53.876;10.662;2023-09-08T13:43:44;101796.53;;;28.74
8533;BMP280;4304;53.876;10.662;2023-09-08T13:46:10;101812.16;;;28.70
8533;BMP280;4304;53.876;10.662;2023-09-08T13:48:35;101778.94;;;28.65
8533;BMP280;4304;53.876;10.662;2023-09-08T13:51:04;101792.81;;;28.68
8533;BMP280;4304;53.876;10.662;2023-09-08T13:53:29;101801.44;;;28.70
8533;BMP280;4304;53.876;10.662;2023-09-08T13:56:01;101805.97;;;28.70
8533;BMP280;4304;53.876;10.662;2023-09-08T13:58:27;101808.91;;;28.54
8533;BMP280;4304;53.876;10.662;2023-09-08T14:00:52;101791.13;;;28.46
8533;BMP280;4304;53.876;10.662;2023-09-08T14:03:18;101781.09;;;28.48
8533;BMP280;4304;53.876;10.662;2023-09-08T14:05:44;101787.31;;;28.55
8533;BMP280;4304;53.876;10.662;2023-09-08T14:08:09;101785.88;;;28.59
8533;BMP280;4304;53.876;10.662;2023-09-08T14:10:35;101805.19;;;28.55